Pantanal — V2OS2 — position and weather

sailwx.info

Track history (hours):
 
Tides and Currents Weather Stations Pressure Air Temp Water Temp Dewpoint Dewpoint Depression Visibility Wind Speed Wind Dir Waves Ship Positions

Pantanal

Last reported at 2018-Jun-12 18:56 UTC. Time now 2018-Jun-19 04:13 UTC.
Position S 33°54' E 017°55'.

Length 120 m; draft 7.5 m.

Type: Cargo ship. MMSI: 304639000.

Date/timePositionNaut miles runAvg speedWind from/ knotsBaromVisibWave heightAir tempDewpointWater temp
2018-Jun-12 18:56S 33°54' E 017°55'512.6
2018-Jun-12 18:30S 33°58' E 017°58'713.5
2018-Jun-12 18:00S 34°05' E 018°01'713.9
2018-Jun-12 17:29S 34°11' E 018°05'714.0
2018-Jun-12 16:59S 34°18' E 018°08'713.9
2018-Jun-12 16:29S 34°24' E 018°12'713.3
2018-Jun-12 15:59S 34°30' E 018°15'613.5
2018-Jun-12 15:30S 34°32' E 018°23'713.5
2018-Jun-12 15:00S 34°35' E 018°31'713.2
2018-Jun-12 14:30S 34°37' E 018°38'713.2
2018-Jun-12 13:58S 34°39' E 018°46'613.2
2018-Jun-12 13:30S 34°42' E 018°53'713.4
2018-Jun-12 13:00S 34°44' E 019°01'713.4
2018-Jun-12 12:29S 34°46' E 019°09'  
2018-Jun-10 04:19S 30°20' E 030°55'310.5
2018-Jun-10 04:01S 30°17' E 030°57'510.7
2018-Jun-10 03:30S 30°13' E 030°59'611.2
2018-Jun-10 03:00S 30°07' E 031°02'611.3
2018-Jun-10 02:30S 30°02' E 031°05'612.5
2018-Jun-10 02:00S 29°57' E 031°08'510.9
2018-Jun-10 01:30S 29°52' E 031°06'3 6.3
2018-Jun-10 01:01S 29°52' E 031°02'0 0.0
2018-Jun-10 00:28S 29°52' E 031°02'0 0.0
2018-Jun-09 23:58S 29°52' E 031°02'0 0.0
2018-Jun-09 23:28S 29°52' E 031°02'0 0.0
2018-Jun-09 22:58S 29°52' E 031°02'0 0.0
2018-Jun-09 22:28S 29°52' E 031°02'0 0.0
2018-Jun-09 21:55S 29°52' E 031°02'0 0.0
2018-Jun-09 21:28S 29°52' E 031°02'0 0.0
2018-Jun-09 20:58S 29°52' E 031°02'0 0.0
2018-Jun-09 20:28S 29°52' E 031°02'0 0.0
2018-Jun-09 19:55S 29°52' E 031°02'0 0.0
2018-Jun-09 19:25S 29°52' E 031°02'0 0.0
2018-Jun-09 18:58S 29°52' E 031°02'0 0.0
2018-Jun-09 18:28S 29°52' E 031°02'0 0.0
2018-Jun-09 17:58S 29°52' E 031°02'0 0.0
2018-Jun-09 17:28S 29°52' E 031°02'0 0.0
2018-Jun-09 16:58S 29°52' E 031°02'0 0.0
2018-Jun-09 16:28S 29°52' E 031°02'0 0.0
2018-Jun-09 15:58S 29°52' E 031°02'0 0.0
2018-Jun-09 14:58S 29°52' E 031°02'0 0.0
2018-Jun-09 14:28S 29°52' E 031°02'0 0.0
2018-Jun-09 13:58S 29°52' E 031°02'0 0.0
2018-Jun-09 13:28S 29°52' E 031°02'0 0.0
2018-Jun-09 12:58S 29°52' E 031°02'0 0.1
2018-Jun-09 12:30S 29°52' E 031°02'1 2.0
2018-Jun-09 12:00S 29°53' E 031°03'4 7.3
2018-Jun-09 11:30S 29°50' E 031°05'3 6.1
2018-Jun-09 11:00S 29°48' E 031°08'5 9.6
2018-Jun-09 10:30S 29°46' E 031°13'1 1.5
2018-Jun-09 09:59S 29°46' E 031°13'0 0.6
2018-Jun-09 09:30S 29°46' E 031°13'4 8.7
2018-Jun-09 09:00S 29°46' E 031°18'510.7
2018-Jun-09 08:30S 29°45' E 031°24'510.9
2018-Jun-09 08:00S 29°43' E 031°30'611.6
2018-Jun-09 07:30S 29°42' E 031°36'611.8
2018-Jun-09 07:00S 29°40' E 031°43'611.6
2018-Jun-09 06:30S 29°39' E 031°49'611.6
2018-Jun-09 06:00S 29°37' E 031°55'713.0
2018-Jun-09 05:30S 29°35' E 032°03'611.7
2018-Jun-09 05:00S 29°33' E 032°09'611.8
2018-Jun-09 04:31S 29°32' E 032°16'612.6
2018-Jun-09 04:00S 29°30' E 032°23'713.7
2018-Jun-09 03:31S 29°28' E 032°30'713.8
2018-Jun-09 03:00S 29°26' E 032°38'713.4
2018-Jun-09 02:30S 29°24' E 032°45'1813.0
2018-Jun-09 01:06S 29°19' E 033°05'312.9
2018-Jun-09 00:51S 29°18' E 033°09'513.0
2018-Jun-09 00:29S 29°17' E 033°14'613.0
2018-Jun-09 00:00S 29°15' E 033°21'1113.0
2018-Jun-08 23:10S 29°11' E 033°33'313.1
2018-Jun-08 22:58S 29°11' E 033°36'  
Track history (hours):
 
Tides and Currents Weather Stations Pressure Air Temp Water Temp Dewpoint Dewpoint Depression Visibility Wind Speed Wind Dir Waves Ship Positions

Pantanal

Last reported at 2018-Jun-12 18:56 UTC. Time now 2018-Jun-19 04:13 UTC.
Position S 33°54' E 017°55'.

Length 120 m; draft 7.5 m.

Type: Cargo ship. MMSI: 304639000.

Date/timePositionNaut miles runAvg speedWind from/ knotsBaromVisibWave heightAir tempDewpointWater temp
2018-Jun-12 18:56S 33°54' E 017°55'512.6
2018-Jun-12 18:30S 33°58' E 017°58'713.5
2018-Jun-12 18:00S 34°05' E 018°01'713.9
2018-Jun-12 17:29S 34°11' E 018°05'714.0
2018-Jun-12 16:59S 34°18' E 018°08'713.9
2018-Jun-12 16:29S 34°24' E 018°12'713.3
2018-Jun-12 15:59S 34°30' E 018°15'613.5
2018-Jun-12 15:30S 34°32' E 018°23'713.5
2018-Jun-12 15:00S 34°35' E 018°31'713.2
2018-Jun-12 14:30S 34°37' E 018°38'713.2
2018-Jun-12 13:58S 34°39' E 018°46'613.2
2018-Jun-12 13:30S 34°42' E 018°53'713.4
2018-Jun-12 13:00S 34°44' E 019°01'713.4
2018-Jun-12 12:29S 34°46' E 019°09'  
2018-Jun-10 04:19S 30°20' E 030°55'310.5
2018-Jun-10 04:01S 30°17' E 030°57'510.7
2018-Jun-10 03:30S 30°13' E 030°59'611.2
2018-Jun-10 03:00S 30°07' E 031°02'611.3
2018-Jun-10 02:30S 30°02' E 031°05'612.5
2018-Jun-10 02:00S 29°57' E 031°08'510.9
2018-Jun-10 01:30S 29°52' E 031°06'3 6.3
2018-Jun-10 01:01S 29°52' E 031°02'0 0.0
2018-Jun-10 00:28S 29°52' E 031°02'0 0.0
2018-Jun-09 23:58S 29°52' E 031°02'0 0.0
2018-Jun-09 23:28S 29°52' E 031°02'0 0.0
2018-Jun-09 22:58S 29°52' E 031°02'0 0.0
2018-Jun-09 22:28S 29°52' E 031°02'0 0.0
2018-Jun-09 21:55S 29°52' E 031°02'0 0.0
2018-Jun-09 21:28S 29°52' E 031°02'0 0.0
2018-Jun-09 20:58S 29°52' E 031°02'0 0.0
2018-Jun-09 20:28S 29°52' E 031°02'0 0.0
2018-Jun-09 19:55S 29°52' E 031°02'0 0.0
2018-Jun-09 19:25S 29°52' E 031°02'0 0.0
2018-Jun-09 18:58S 29°52' E 031°02'0 0.0
2018-Jun-09 18:28S 29°52' E 031°02'0 0.0
2018-Jun-09 17:58S 29°52' E 031°02'0 0.0
2018-Jun-09 17:28S 29°52' E 031°02'0 0.0
2018-Jun-09 16:58S 29°52' E 031°02'0 0.0
2018-Jun-09 16:28S 29°52' E 031°02'0 0.0
2018-Jun-09 15:58S 29°52' E 031°02'0 0.0
2018-Jun-09 14:58S 29°52' E 031°02'0 0.0
2018-Jun-09 14:28S 29°52' E 031°02'0 0.0
2018-Jun-09 13:58S 29°52' E 031°02'0 0.0
2018-Jun-09 13:28S 29°52' E 031°02'0 0.0
2018-Jun-09 12:58S 29°52' E 031°02'0 0.1
2018-Jun-09 12:30S 29°52' E 031°02'1 2.0
2018-Jun-09 12:00S 29°53' E 031°03'4 7.3
2018-Jun-09 11:30S 29°50' E 031°05'3 6.1
2018-Jun-09 11:00S 29°48' E 031°08'5 9.6
2018-Jun-09 10:30S 29°46' E 031°13'1 1.5
2018-Jun-09 09:59S 29°46' E 031°13'0 0.6
2018-Jun-09 09:30S 29°46' E 031°13'4 8.7
2018-Jun-09 09:00S 29°46' E 031°18'510.7
2018-Jun-09 08:30S 29°45' E 031°24'510.9
2018-Jun-09 08:00S 29°43' E 031°30'611.6
2018-Jun-09 07:30S 29°42' E 031°36'611.8
2018-Jun-09 07:00S 29°40' E 031°43'611.6
2018-Jun-09 06:30S 29°39' E 031°49'611.6
2018-Jun-09 06:00S 29°37' E 031°55'713.0
2018-Jun-09 05:30S 29°35' E 032°03'611.7
2018-Jun-09 05:00S 29°33' E 032°09'611.8
2018-Jun-09 04:31S 29°32' E 032°16'612.6
2018-Jun-09 04:00S 29°30' E 032°23'713.7
2018-Jun-09 03:31S 29°28' E 032°30'713.8
2018-Jun-09 03:00S 29°26' E 032°38'713.4
2018-Jun-09 02:30S 29°24' E 032°45'1813.0
2018-Jun-09 01:06S 29°19' E 033°05'312.9
2018-Jun-09 00:51S 29°18' E 033°09'513.0
2018-Jun-09 00:29S 29°17' E 033°14'613.0
2018-Jun-09 00:00S 29°15' E 033°21'1113.0
2018-Jun-08 23:10S 29°11' E 033°33'313.1
2018-Jun-08 22:58S 29°11' E 033°36'  

Dump ship's entire track history